Honolulu, HI

8:47 AM HST on December 10, 2016 (GMT -1000)
Honolulu Harbor Pier 35 | | Change Station

Elev 0 ft 21.32 °N, 157.88 °W | Updated 3 seconds ago

Mostly Cloudy
Mostly Cloudy
75.1 °F
Feels Like 75 °F
N
1.0
Wind Variable Wind from NE
Gusts 3.0 mph

Today
High -- | Low -- °F
--% Chance of Precip.
Yesterday
High -- | Low -- °F
Precip. -- in
Pressure 29.98 in
Visibility 10.0 miles
Clouds Scattered Clouds 6500 ft
Mostly Cloudy 8000 ft
Mostly Cloudy 13000 ft
Heat Index 75 °F
Dew Point 70 °F
Humidity 84%
Rainfall 0.00 in
Snow Depth Not available.
6:58 AM 5:50 PM
Waxing Gibbous, 85% visible
METAR PHNL 101753Z 33004KT 10SM SCT065 BKN080 BKN130 22/21 A2997 RMK AO2 SLP150 T02170211 52011 $
Pressure 29.98 in
Visibility 10.0 miles
Clouds Scattered Clouds 6500 ft
Mostly Cloudy 8000 ft
Mostly Cloudy 13000 ft
Heat Index 75 °F
Dew Point 70 °F
Humidity 84%
Rainfall 0.00 in
Snow Depth Not available.
6:58 AM 5:50 PM
Waxing Gibbous, 85% visible
METAR PHNL 101753Z 33004KT 10SM SCT065 BKN080 BKN130 22/21 A2997 RMK AO2 SLP150 T02170211 52011 $

10-Day Weather Forecast

Almanac

Astronomy

Dec. 10, 2016 Rise Set
Actual Time
Civil Twilight
Nautical Twilight
Astronomical Twilight
Moon
Length of Visible Light
Length of Day
Tomorrow will be .
, % of the Moon is Illuminated

Today's Extremes

State Highs State Lows

Community

WunderPhotos

Upload Photos

1,956,620 photos uploaded!

WunderBlog® & News

Nearby

Air Quality

  Air Quality AQ Index Pollutant
Not available.

Snow Depth

Station Depth Elevation

Earthquake Activity

City Distance Mag. Time & Date
Minimum magnitude displayed is 2.5.

Coastal Water Temperatures

Place Temperature

Stations

Nearby Weather Stations

Station Location Temp. Windchill Dew Point Humidity Wind Precip. Elev Updated Type
                   

Watches & Warnings

There are currently no watches in effect.